sensor_id;sensor_type;location;lat;lon;timestamp;pressure;altitude;pressure_sealevel;temperature;humidity
79138;BME280;68544;45.566;10.238;2023-11-21T00:00:14;63623.47;;;13.72;60.02
79138;BME280;68544;45.566;10.238;2023-11-21T00:02:40;63624.41;;;13.73;59.38
79138;BME280;68544;45.566;10.238;2023-11-21T00:05:09;63625.88;;;13.74;59.42
79138;BME280;68544;45.566;10.238;2023-11-21T00:07:35;63626.69;;;13.75;59.86
79138;BME280;68544;45.566;10.238;2023-11-21T00:10:00;63627.22;;;13.76;59.57
79138;BME280;68544;45.566;10.238;2023-11-21T00:12:25;63627.84;;;13.76;59.78
79138;BME280;68544;45.566;10.238;2023-11-21T00:14:50;63628.03;;;13.76;60.03
79138;BME280;68544;45.566;10.238;2023-11-21T00:17:15;63627.16;;;13.76;60.32
79138;BME280;68544;45.566;10.238;2023-11-21T00:19:41;63627.59;;;13.76;60.42
79138;BME280;68544;45.566;10.238;2023-11-21T00:22:07;63628.31;;;13.77;59.73
79138;BME280;68544;45.566;10.238;2023-11-21T00:24:34;63628.94;;;13.78;59.64
79138;BME280;68544;45.566;10.238;2023-11-21T00:26:59;63629.91;;;13.79;59.86
79138;BME280;68544;45.566;10.238;2023-11-21T00:29:24;63630.91;;;13.79;59.97
79138;BME280;68544;45.566;10.238;2023-11-21T00:31:49;63630.63;;;13.79;60.73
79138;BME280;68544;45.566;10.238;2023-11-21T00:34:14;63630.97;;;13.79;60.99
79138;BME280;68544;45.566;10.238;2023-11-21T00:36:40;63630.09;;;13.79;61.49
79138;BME280;68544;45.566;10.238;2023-11-21T00:39:05;63628.84;;;13.78;61.33
79138;BME280;68544;45.566;10.238;2023-11-21T00:41:31;63627.53;;;13.76;61.23
79138;BME280;68544;45.566;10.238;2023-11-21T00:43:56;63626.28;;;13.75;60.75
79138;BME280;68544;45.566;10.238;2023-11-21T00:46:21;63625.22;;;13.74;60.67
79138;BME280;68544;45.566;10.238;2023-11-21T00:48:49;63624.13;;;13.73;60.66
79138;BME280;68544;45.566;10.238;2023-11-21T00:51:14;63622.66;;;13.72;61.22
79138;BME280;68544;45.566;10.238;2023-11-21T00:53:39;63621.78;;;13.72;61.27
79138;BME280;68544;45.566;10.238;2023-11-21T00:56:05;63619.47;;;13.70;61.45
79138;BME280;68544;45.566;10.238;2023-11-21T00:58:30;63618.25;;;13.69;61.37
79138;BME280;68544;45.566;10.238;2023-11-21T01:00:55;63618.06;;;13.69;61.10
79138;BME280;68544;45.566;10.238;2023-11-21T01:03:21;63619.19;;;13.69;61.05
79138;BME280;68544;45.566;10.238;2023-11-21T01:05:46;63619.91;;;13.70;60.93
79138;BME280;68544;45.566;10.238;2023-11-21T01:08:11;63620.00;;;13.70;61.39
79138;BME280;68544;45.566;10.238;2023-11-21T01:10:37;63619.28;;;13.70;61.79
79138;BME280;68544;45.566;10.238;2023-11-21T01:13:02;63619.84;;;13.70;61.22
79138;BME280;68544;45.566;10.238;2023-11-21T01:15:30;63620.00;;;13.70;60.60
79138;BME280;68544;45.566;10.238;2023-11-21T01:17:55;63620.59;;;13.70;60.37
79138;BME280;68544;45.566;10.238;2023-11-21T01:20:21;63620.25;;;13.70;60.66
79138;BME280;68544;45.566;10.238;2023-11-21T01:22:46;63620.50;;;13.70;60.28
79138;BME280;68544;45.566;10.238;2023-11-21T01:25:14;63620.78;;;13.70;59.97
79138;BME280;68544;45.566;10.238;2023-11-21T01:27:39;63621.16;;;13.71;60.08
79138;BME280;68544;45.566;10.238;2023-11-21T01:30:05;63621.22;;;13.71;60.44
79138;BME280;68544;45.566;10.238;2023-11-21T01:32:32;63622.44;;;13.72;60.10
79138;BME280;68544;45.566;10.238;2023-11-21T01:34:57;63623.41;;;13.72;60.04
79138;BME280;68544;45.566;10.238;2023-11-21T01:37:22;63623.25;;;13.72;60.29
79138;BME280;68544;45.566;10.238;2023-11-21T01:39:48;63623.03;;;13.72;60.21
79138;BME280;68544;45.566;10.238;2023-11-21T01:42:13;63622.88;;;13.72;59.76
79138;BME280;68544;45.566;10.238;2023-11-21T01:44:39;63623.69;;;13.73;59.44
79138;BME280;68544;45.566;10.238;2023-11-21T01:47:05;63624.22;;;13.73;59.52
79138;BME280;68544;45.566;10.238;2023-11-21T01:49:34;63624.13;;;13.73;59.90
79138;BME280;68544;45.566;10.238;2023-11-21T01:52:00;63624.03;;;13.73;60.24
79138;BME280;68544;45.566;10.238;2023-11-21T01:54:25;63623.28;;;13.72;60.72
79138;BME280;68544;45.566;10.238;2023-11-21T01:56:50;63621.50;;;13.70;61.47
79138;BME280;68544;45.566;10.238;2023-11-21T01:59:17;63620.28;;;13.69;61.14
79138;BME280;68544;45.566;10.238;2023-11-21T02:01:43;63619.69;;;13.69;60.40
79138;BME280;68544;45.566;10.238;2023-11-21T02:04:09;63619.31;;;13.68;60.54
79138;BME280;68544;45.566;10.238;2023-11-21T02:06:34;63618.16;;;13.68;60.65
79138;BME280;68544;45.566;10.238;2023-11-21T02:09:00;63618.78;;;13.68;58.81
79138;BME280;68544;45.566;10.238;2023-11-21T02:11:25;63619.47;;;13.68;59.66
79138;BME280;68544;45.566;10.238;2023-11-21T02:13:52;63619.84;;;13.69;59.75
79138;BME280;68544;45.566;10.238;2023-11-21T02:16:19;63619.41;;;13.69;59.54
79138;BME280;68544;45.566;10.238;2023-11-21T02:18:45;63618.25;;;13.67;59.98
79138;BME280;68544;45.566;10.238;2023-11-21T02:21:12;63617.28;;;13.67;59.73
79138;BME280;68544;45.566;10.238;2023-11-21T02:23:37;63616.38;;;13.66;59.95
79138;BME280;68544;45.566;10.238;2023-11-21T02:26:07;63615.75;;;13.65;58.78
79138;BME280;68544;45.566;10.238;2023-11-21T02:28:32;63616.47;;;13.66;58.92
79138;BME280;68544;45.566;10.238;2023-11-21T02:30:58;63616.75;;;13.66;59.93
79138;BME280;68544;45.566;10.238;2023-11-21T02:33:24;63617.19;;;13.66;59.65
79138;BME280;68544;45.566;10.238;2023-11-21T02:35:49;63617.28;;;13.67;59.48
79138;BME280;68544;45.566;10.238;2023-11-21T02:38:16;63617.44;;;13.67;59.46
79138;BME280;68544;45.566;10.238;2023-11-21T02:40:42;63616.69;;;13.66;59.66
79138;BME280;68544;45.566;10.238;2023-11-21T02:43:07;63616.50;;;13.66;59.28
79138;BME280;68544;45.566;10.238;2023-11-21T02:45:32;63616.59;;;13.67;59.32
79138;BME280;68544;45.566;10.238;2023-11-21T02:47:58;63617.47;;;13.67;59.23
79138;BME280;68544;45.566;10.238;2023-11-21T02:50:23;63617.56;;;13.67;58.29
79138;BME280;68544;45.566;10.238;2023-11-21T02:52:48;63618.16;;;13.68;58.36
79138;BME280;68544;45.566;10.238;2023-11-21T02:55:14;63618.28;;;13.68;58.88
79138;BME280;68544;45.566;10.238;2023-11-21T02:57:39;63618.44;;;13.68;59.67
79138;BME280;68544;45.566;10.238;2023-11-21T03:00:04;63619.03;;;13.68;59.70
79138;BME280;68544;45.566;10.238;2023-11-21T03:02:32;63619.47;;;13.68;59.72
79138;BME280;68544;45.566;10.238;2023-11-21T03:04:57;63617.56;;;13.67;60.31
79138;BME280;68544;45.566;10.238;2023-11-21T03:07:23;63615.84;;;13.65;60.66
79138;BME280;68544;45.566;10.238;2023-11-21T03:09:48;63614.44;;;13.64;60.94
79138;BME280;68544;45.566;10.238;2023-11-21T03:12:13;63613.09;;;13.63;60.72
79138;BME280;68544;45.566;10.238;2023-11-21T03:14:39;63611.88;;;13.62;61.05
79138;BME280;68544;45.566;10.238;2023-11-21T03:17:04;63611.22;;;13.61;60.63
79138;BME280;68544;45.566;10.238;2023-11-21T03:19:30;63610.34;;;13.60;60.22
79138;BME280;68544;45.566;10.238;2023-11-21T03:21:55;63610.72;;;13.61;59.63
79138;BME280;68544;45.566;10.238;2023-11-21T03:24:20;63611.41;;;13.61;59.95
79138;BME280;68544;45.566;10.238;2023-11-21T03:26:47;63612.63;;;13.62;59.77
79138;BME280;68544;45.566;10.238;2023-11-21T03:29:12;63613.59;;;13.63;60.02
79138;BME280;68544;45.566;10.238;2023-11-21T03:31:38;63614.31;;;13.63;59.73
79138;BME280;68544;45.566;10.238;2023-11-21T03:34:03;63614.41;;;13.64;59.86
79138;BME280;68544;45.566;10.238;2023-11-21T03:36:28;63613.88;;;13.63;60.79
79138;BME280;68544;45.566;10.238;2023-11-21T03:38:54;63613.69;;;13.63;61.10
79138;BME280;68544;45.566;10.238;2023-11-21T03:41:20;63612.66;;;13.61;61.32
79138;BME280;68544;45.566;10.238;2023-11-21T03:43:45;63611.50;;;13.60;61.28
79138;BME280;68544;45.566;10.238;2023-11-21T03:46:11;63610.44;;;13.59;60.63
79138;BME280;68544;45.566;10.238;2023-11-21T03:48:37;63609.09;;;13.58;60.74
79138;BME280;68544;45.566;10.238;2023-11-21T03:51:02;63607.69;;;13.57;61.14
79138;BME280;68544;45.566;10.238;2023-11-21T03:53:28;63606.53;;;13.56;61.64
79138;BME280;68544;45.566;10.238;2023-11-21T03:55:53;63605.41;;;13.55;61.33
79138;BME280;68544;45.566;10.238;2023-11-21T03:58:18;63604.16;;;13.54;61.38
79138;BME280;68544;45.566;10.238;2023-11-21T04:00:44;63602.72;;;13.52;61.79
79138;BME280;68544;45.566;10.238;2023-11-21T04:03:09;63601.22;;;13.51;61.30
79138;BME280;68544;45.566;10.238;2023-11-21T04:05:34;63600.34;;;13.50;61.40
79138;BME280;68544;45.566;10.238;2023-11-21T04:07:59;63598.75;;;13.49;60.53
79138;BME280;68544;45.566;10.238;2023-11-21T04:10:25;63596.25;;;13.46;61.50
79138;BME280;68544;45.566;10.238;2023-11-21T04:12:50;63594.13;;;13.44;61.52
79138;BME280;68544;45.566;10.238;2023-11-21T04:15:15;63592.25;;;13.43;61.35
79138;BME280;68544;45.566;10.238;2023-11-21T04:17:41;63591.88;;;13.42;59.99
79138;BME280;68544;45.566;10.238;2023-11-21T04:20:07;63591.25;;;13.41;58.54
79138;BME280;68544;45.566;10.238;2023-11-21T04:22:36;63590.44;;;13.41;58.75
79138;BME280;68544;45.566;10.238;2023-11-21T04:25:01;63589.81;;;13.40;58.87
79138;BME280;68544;45.566;10.238;2023-11-21T04:27:27;63589.19;;;13.39;58.77
79138;BME280;68544;45.566;10.238;2023-11-21T04:29:52;63588.06;;;13.38;58.74
79138;BME280;68544;45.566;10.238;2023-11-21T04:32:17;63588.22;;;13.38;58.78
79138;BME280;68544;45.566;10.238;2023-11-21T04:34:42;63589.47;;;13.39;58.30
79138;BME280;68544;45.566;10.238;2023-11-21T04:37:07;63590.53;;;13.40;58.38
79138;BME280;68544;45.566;10.238;2023-11-21T04:39:34;63590.88;;;13.41;58.80
79138;BME280;68544;45.566;10.238;2023-11-21T04:41:59;63592.19;;;13.42;58.65
79138;BME280;68544;45.566;10.238;2023-11-21T04:44:24;63592.03;;;13.42;59.03
79138;BME280;68544;45.566;10.238;2023-11-21T04:46:50;63591.22;;;13.41;59.08
79138;BME280;68544;45.566;10.238;2023-11-21T04:49:15;63590.53;;;13.40;59.21
79138;BME280;68544;45.566;10.238;2023-11-21T04:51:40;63590.63;;;13.41;58.99
79138;BME280;68544;45.566;10.238;2023-11-21T04:54:05;63590.63;;;13.41;59.60
79138;BME280;68544;45.566;10.238;2023-11-21T04:56:31;63591.16;;;13.41;59.12
79138;BME280;68544;45.566;10.238;2023-11-21T04:58:56;63589.59;;;13.40;59.70
79138;BME280;68544;45.566;10.238;2023-11-21T05:01:21;63589.47;;;13.40;59.29
79138;BME280;68544;45.566;10.238;2023-11-21T05:03:46;63589.41;;;13.40;59.42
79138;BME280;68544;45.566;10.238;2023-11-21T05:06:12;63590.13;;;13.41;59.23
79138;BME280;68544;45.566;10.238;2023-11-21T05:08:37;63591.25;;;13.41;59.16
79138;BME280;68544;45.566;10.238;2023-11-21T05:11:03;63591.88;;;13.42;59.55
79138;BME280;68544;45.566;10.238;2023-11-21T05:13:28;63590.19;;;13.40;60.00
79138;BME280;68544;45.566;10.238;2023-11-21T05:15:56;63587.81;;;13.39;60.33
79138;BME280;68544;45.566;10.238;2023-11-21T05:18:22;63586.13;;;13.37;60.50
79138;BME280;68544;45.566;10.238;2023-11-21T05:20:47;63583.81;;;13.35;60.60
79138;BME280;68544;45.566;10.238;2023-11-21T05:23:12;63582.63;;;13.34;60.34
79138;BME280;68544;45.566;10.238;2023-11-21T05:25:38;63580.16;;;13.32;60.44
79138;BME280;68544;45.566;10.238;2023-11-21T05:28:03;63579.00;;;13.30;60.08
79138;BME280;68544;45.566;10.238;2023-11-21T05:30:29;63576.53;;;13.28;60.34
79138;BME280;68544;45.566;10.238;2023-11-21T05:32:54;63574.31;;;13.26;60.19
79138;BME280;68544;45.566;10.238;2023-11-21T05:35:19;63572.28;;;13.24;59.76
79138;BME280;68544;45.566;10.238;2023-11-21T05:37:47;63569.78;;;13.22;59.81
79138;BME280;68544;45.566;10.238;2023-11-21T05:40:12;63566.94;;;13.19;60.00
79138;BME280;68544;45.566;10.238;2023-11-21T05:42:38;63564.78;;;13.17;59.94
79138;BME280;68544;45.566;10.238;2023-11-21T05:45:04;63562.22;;;13.15;60.01
79138;BME280;68544;45.566;10.238;2023-11-21T05:47:39;63557.09;;;13.11;61.65
79138;BME280;68544;45.566;10.238;2023-11-21T05:50:05;63552.81;;;13.06;61.24
79138;BME280;68544;45.566;10.238;2023-11-21T05:52:31;63548.91;;;13.03;61.19
79138;BME280;68544;45.566;10.238;2023-11-21T05:54:57;63546.94;;;13.01;60.58
79138;BME280;68544;45.566;10.238;2023-11-21T05:57:22;63544.91;;;12.99;60.42
79138;BME280;68544;45.566;10.238;2023-11-21T05:59:48;63543.19;;;12.97;60.19
79138;BME280;68544;45.566;10.238;2023-11-21T06:02:13;63540.91;;;12.95;60.27
79138;BME280;68544;45.566;10.238;2023-11-21T06:04:38;63538.13;;;12.93;60.82
79138;BME280;68544;45.566;10.238;2023-11-21T06:07:03;63535.81;;;12.91;60.42
79138;BME280;68544;45.566;10.238;2023-11-21T06:09:29;63533.88;;;12.89;60.40
79138;BME280;68544;45.566;10.238;2023-11-21T06:11:54;63530.31;;;12.86;60.82
79138;BME280;68544;45.566;10.238;2023-11-21T06:14:19;63528.34;;;12.84;60.28
79138;BME280;68544;45.566;10.238;2023-11-21T06:16:46;63526.06;;;12.82;60.23
79138;BME280;68544;45.566;10.238;2023-11-21T06:19:12;63524.81;;;12.81;60.05
79138;BME280;68544;45.566;10.238;2023-11-21T06:21:37;63522.78;;;12.79;60.48
79138;BME280;68544;45.566;10.238;2023-11-21T06:24:03;63520.47;;;12.77;61.10
79138;BME280;68544;45.566;10.238;2023-11-21T06:26:28;63518.16;;;12.75;61.53
79138;BME280;68544;45.566;10.238;2023-11-21T06:28:54;63516.16;;;12.73;61.46
79138;BME280;68544;45.566;10.238;2023-11-21T06:31:20;63514.81;;;12.72;61.16
79138;BME280;68544;45.566;10.238;2023-11-21T06:33:46;63513.75;;;12.71;60.79
79138;BME280;68544;45.566;10.238;2023-11-21T06:36:12;63512.94;;;12.70;60.53
79138;BME280;68544;45.566;10.238;2023-11-21T06:38:37;63510.91;;;12.68;61.76
79138;BME280;68544;45.566;10.238;2023-11-21T06:41:02;63508.34;;;12.66;62.54
79138;BME280;68544;45.566;10.238;2023-11-21T06:43:29;63505.41;;;12.63;62.87
79138;BME280;68544;45.566;10.238;2023-11-21T06:45:56;63503.34;;;12.61;62.65
79138;BME280;68544;45.566;10.238;2023-11-21T06:48:21;63499.97;;;12.58;62.68
79138;BME280;68544;45.566;10.238;2023-11-21T06:50:46;63498.75;;;12.57;61.90
79138;BME280;68544;45.566;10.238;2023-11-21T06:53:11;63498.22;;;12.56;61.52
79138;BME280;68544;45.566;10.238;2023-11-21T06:55:38;63496.50;;;12.55;61.57
79138;BME280;68544;45.566;10.238;2023-11-21T06:58:03;63494.38;;;12.53;62.08
79138;BME280;68544;45.566;10.238;2023-11-21T07:00:30;63492.34;;;12.51;62.55
79138;BME280;68544;45.566;10.238;2023-11-21T07:02:55;63490.72;;;12.49;62.56
79138;BME280;68544;45.566;10.238;2023-11-21T07:05:21;63489.25;;;12.48;62.42
79138;BME280;68544;45.566;10.238;2023-11-21T07:07:47;63488.69;;;12.48;62.16
79138;BME280;68544;45.566;10.238;2023-11-21T07:10:13;63486.66;;;12.46;62.36
79138;BME280;68544;45.566;10.238;2023-11-21T07:12:38;63484.63;;;12.44;62.53
79138;BME280;68544;45.566;10.238;2023-11-21T07:15:04;63484.38;;;12.44;61.73
79138;BME280;68544;45.566;10.238;2023-11-21T07:17:32;63485.19;;;12.45;61.11
79138;BME280;68544;45.566;10.238;2023-11-21T07:19:57;63484.97;;;12.44;61.17
79138;BME280;68544;45.566;10.238;2023-11-21T07:22:22;63483.81;;;12.43;61.49
79138;BME280;68544;45.566;10.238;2023-11-21T07:24:48;63484.06;;;12.43;61.32
79138;BME280;68544;45.566;10.238;2023-11-21T07:27:13;63485.03;;;12.44;61.02
79138;BME280;68544;45.566;10.238;2023-11-21T07:29:38;63486.13;;;12.45;61.00
79138;BME280;68544;45.566;10.238;2023-11-21T07:32:04;63489.09;;;12.47;60.62
79138;BME280;68544;45.566;10.238;2023-11-21T07:34:30;63491.44;;;12.50;60.31
79138;BME280;68544;45.566;10.238;2023-11-21T07:36:55;63494.66;;;12.53;60.11
79138;BME280;68544;45.566;10.238;2023-11-21T07:39:21;63497.31;;;12.55;60.23
79138;BME280;68544;45.566;10.238;2023-11-21T07:41:46;63501.38;;;12.59;59.40
79138;BME280;68544;45.566;10.238;2023-11-21T07:44:14;63504.94;;;12.62;58.72
79138;BME280;68544;45.566;10.238;2023-11-21T07:46:39;63508.31;;;12.65;58.72
79138;BME280;68544;45.566;10.238;2023-11-21T07:49:05;63514.03;;;12.70;57.85
79138;BME280;68544;45.566;10.238;2023-11-21T07:51:30;63519.09;;;12.75;58.06
79138;BME280;68544;45.566;10.238;2023-11-21T07:53:55;63523.78;;;12.78;57.99
79138;BME280;68544;45.566;10.238;2023-11-21T07:56:21;63529.44;;;12.83;56.96
79138;BME280;68544;45.566;10.238;2023-11-21T07:58:46;63534.56;;;12.88;57.10
79138;BME280;68544;45.566;10.238;2023-11-21T08:01:11;63539.28;;;12.92;57.03
79138;BME280;68544;45.566;10.238;2023-11-21T08:03:37;63545.81;;;12.98;56.60
79138;BME280;68544;45.566;10.238;2023-11-21T08:06:02;63552.03;;;13.03;56.67
79138;BME280;68544;45.566;10.238;2023-11-21T08:08:30;63557.69;;;13.08;56.38
79138;BME280;68544;45.566;10.238;2023-11-21T08:10:57;63562.94;;;13.13;56.51
79138;BME280;68544;45.566;10.238;2023-11-21T08:13:22;63567.81;;;13.17;56.10
79138;BME280;68544;45.566;10.238;2023-11-21T08:15:48;63573.22;;;13.22;55.55
79138;BME280;68544;45.566;10.238;2023-11-21T08:18:13;63578.72;;;13.27;55.44
79138;BME280;68544;45.566;10.238;2023-11-21T08:20:39;63584.41;;;13.32;55.18
79138;BME280;68544;45.566;10.238;2023-11-21T08:23:05;63589.91;;;13.37;54.86
79138;BME280;68544;45.566;10.238;2023-11-21T08:25:31;63596.38;;;13.43;54.79
79138;BME280;68544;45.566;10.238;2023-11-21T08:27:56;63602.97;;;13.49;54.41
79138;BME280;68544;45.566;10.238;2023-11-21T08:30:22;63608.38;;;13.54;54.67
79138;BME280;68544;45.566;10.238;2023-11-21T08:32:49;63614.91;;;13.59;54.36
79138;BME280;68544;45.566;10.238;2023-11-21T08:35:14;63621.31;;;13.65;53.92
79138;BME280;68544;45.566;10.238;2023-11-21T08:37:40;63627.88;;;13.71;53.51
79138;BME280;68544;45.566;10.238;2023-11-21T08:40:06;63634.66;;;13.77;53.42
79138;BME280;68544;45.566;10.238;2023-11-21T08:42:37;63636.69;;;13.79;54.34
79138;BME280;68544;45.566;10.238;2023-11-21T08:45:02;63641.81;;;13.84;54.07
79138;BME280;68544;45.566;10.238;2023-11-21T08:47:28;63645.66;;;13.88;54.40
79138;BME280;68544;45.566;10.238;2023-11-21T08:49:53;63649.72;;;13.91;54.61
79138;BME280;68544;45.566;10.238;2023-11-21T08:52:19;63654.44;;;13.95;53.82
79138;BME280;68544;45.566;10.238;2023-11-21T08:54:47;63659.25;;;14.00;53.71
79138;BME280;68544;45.566;10.238;2023-11-21T08:57:13;63663.41;;;14.04;54.03
79138;BME280;68544;45.566;10.238;2023-11-21T08:59:38;63668.72;;;14.08;53.97
79138;BME280;68544;45.566;10.238;2023-11-21T09:02:03;63674.94;;;14.14;53.82
79138;BME280;68544;45.566;10.238;2023-11-21T09:04:28;63680.81;;;14.19;53.65
79138;BME280;68544;45.566;10.238;2023-11-21T09:06:54;63686.88;;;14.25;53.68
79138;BME280;68544;45.566;10.238;2023-11-21T09:09:19;63692.91;;;14.30;53.12
79138;BME280;68544;45.566;10.238;2023-11-21T09:11:44;63698.59;;;14.35;53.58
79138;BME280;68544;45.566;10.238;2023-11-21T09:14:10;63704.91;;;14.41;53.60
79138;BME280;68544;45.566;10.238;2023-11-21T09:16:37;63711.16;;;14.47;52.57
79138;BME280;68544;45.566;10.238;2023-11-21T09:19:03;63717.53;;;14.52;52.44
79138;BME280;68544;45.566;10.238;2023-11-21T09:21:30;63723.13;;;14.57;52.29
79138;BME280;68544;45.566;10.238;2023-11-21T09:23:55;63729.34;;;14.63;52.22
79138;BME280;68544;45.566;10.238;2023-11-21T09:26:20;63736.63;;;14.70;51.57
79138;BME280;68544;45.566;10.238;2023-11-21T09:28:46;63743.81;;;14.76;51.29
79138;BME280;68544;45.566;10.238;2023-11-21T09:31:12;63749.25;;;14.81;51.76
79138;BME280;68544;45.566;10.238;2023-11-21T09:33:38;63754.50;;;14.86;52.05
79138;BME280;68544;45.566;10.238;2023-11-21T09:36:03;63758.72;;;14.90;52.22
79138;BME280;68544;45.566;10.238;2023-11-21T09:38:29;63763.34;;;14.94;51.95
79138;BME280;68544;45.566;10.238;2023-11-21T09:40:55;63768.16;;;14.99;51.10
79138;BME280;68544;45.566;10.238;2023-11-21T09:43:23;63772.66;;;15.02;51.01
79138;BME280;68544;45.566;10.238;2023-11-21T09:45:56;63776.06;;;15.06;51.64
79138;BME280;68544;45.566;10.238;2023-11-21T09:48:24;63778.84;;;15.09;51.88
79138;BME280;68544;45.566;10.238;2023-11-21T09:50:50;63782.50;;;15.12;51.70
79138;BME280;68544;45.566;10.238;2023-11-21T09:53:17;63784.34;;;15.14;52.30
79138;BME280;68544;45.566;10.238;2023-11-21T09:55:44;63785.78;;;15.15;51.86
79138;BME280;68544;45.566;10.238;2023-11-21T09:58:09;63787.28;;;15.17;52.02
79138;BME280;68544;45.566;10.238;2023-11-21T10:00:38;63787.81;;;15.17;51.94
79138;BME280;68544;45.566;10.238;2023-11-21T10:03:04;63788.69;;;15.18;52.16
79138;BME280;68544;45.566;10.238;2023-11-21T10:05:30;63789.84;;;15.19;51.94
79138;BME280;68544;45.566;10.238;2023-11-21T10:07:59;63791.19;;;15.20;51.87
79138;BME280;68544;45.566;10.238;2023-11-21T10:10:24;63791.53;;;15.20;51.68
79138;BME280;68544;45.566;10.238;2023-11-21T10:12:51;63792.06;;;15.21;51.96
79138;BME280;68544;45.566;10.238;2023-11-21T10:15:23;63792.34;;;15.21;52.23
79138;BME280;68544;45.566;10.238;2023-11-21T10:17:50;63793.50;;;15.22;51.65
79138;BME280;68544;45.566;10.238;2023-11-21T10:20:18;63794.78;;;15.24;52.01
79138;BME280;68544;45.566;10.238;2023-11-21T10:22:44;63797.16;;;15.25;51.84
79138;BME280;68544;45.566;10.238;2023-11-21T10:25:10;63795.00;;;15.23;52.88
79138;BME280;68544;45.566;10.238;2023-11-21T10:27:36;63794.91;;;15.23;52.18
79138;BME280;68544;45.566;10.238;2023-11-21T10:30:05;63794.81;;;15.23;52.31
79138;BME280;68544;45.566;10.238;2023-11-21T10:32:30;63796.31;;;15.24;51.40
79138;BME280;68544;45.566;10.238;2023-11-21T10:34:57;63797.66;;;15.25;51.42
79138;BME280;68544;45.566;10.238;2023-11-21T10:37:24;63798.47;;;15.26;51.90
79138;BME280;68544;45.566;10.238;2023-11-21T10:39:50;63799.69;;;15.27;51.38
79138;BME280;68544;45.566;10.238;2023-11-21T10:42:15;63800.75;;;15.28;51.75
79138;BME280;68544;45.566;10.238;2023-11-21T10:44:42;63801.28;;;15.28;52.32
79138;BME280;68544;45.566;10.238;2023-11-21T10:47:09;63802.16;;;15.29;52.51
79138;BME280;68544;45.566;10.238;2023-11-21T10:49:36;63803.69;;;15.30;52.09
79138;BME280;68544;45.566;10.238;2023-11-21T10:52:02;63804.69;;;15.32;52.42
79138;BME280;68544;45.566;10.238;2023-11-21T10:54:28;63806.44;;;15.33;52.54
79138;BME280;68544;45.566;10.238;2023-11-21T10:56:57;63808.78;;;15.35;52.20
79138;BME280;68544;45.566;10.238;2023-11-21T10:59:24;63811.97;;;15.38;51.57
79138;BME280;68544;45.566;10.238;2023-11-21T11:01:51;63814.44;;;15.40;50.87
79138;BME280;68544;45.566;10.238;2023-11-21T11:04:20;63818.28;;;15.44;50.59
79138;BME280;68544;45.566;10.238;2023-11-21T11:07:08;63821.66;;;15.47;50.62
79138;BME280;68544;45.566;10.238;2023-11-21T11:09:34;63825.66;;;15.50;49.90
79138;BME280;68544;45.566;10.238;2023-11-21T11:12:01;63829.50;;;15.54;48.76
79138;BME280;68544;45.566;10.238;2023-11-21T11:14:27;63832.25;;;15.56;48.74
79138;BME280;68544;45.566;10.238;2023-11-21T11:16:53;63834.22;;;15.58;49.33
79138;BME280;68544;45.566;10.238;2023-11-21T11:19:19;63837.63;;;15.61;49.25
79138;BME280;68544;45.566;10.238;2023-11-21T11:24:20;63844.88;;;15.67;49.38
79138;BME280;68544;45.566;10.238;2023-11-21T11:29:40;63847.19;;;15.69;50.61
79138;BME280;68544;45.566;10.238;2023-11-21T11:34:35;63849.84;;;15.72;50.42
79138;BME280;68544;45.566;10.238;2023-11-21T11:37:06;63852.44;;;15.74;50.30
79138;BME280;68544;45.566;10.238;2023-11-21T11:39:42;63853.50;;;15.75;50.26
79138;BME280;68544;45.566;10.238;2023-11-21T11:42:14;63853.44;;;15.75;51.17
79138;BME280;68544;45.566;10.238;2023-11-21T11:47:14;63854.41;;;15.76;51.86
79138;BME280;68544;45.566;10.238;2023-11-21T11:49:59;63854.13;;;15.76;51.61
79138;BME280;68544;45.566;10.238;2023-11-21T11:52:34;63853.88;;;15.76;51.61
79138;BME280;68544;45.566;10.238;2023-11-21T11:55:00;63852.47;;;15.75;51.79
79138;BME280;68544;45.566;10.238;2023-11-21T11:57:25;63853.78;;;15.76;51.06
79138;BME280;68544;45.566;10.238;2023-11-21T12:00:10;63855.50;;;15.77;51.18
79138;BME280;68544;45.566;10.238;2023-11-21T12:02:36;63857.25;;;15.79;50.73
79138;BME280;68544;45.566;10.238;2023-11-21T12:05:06;63857.97;;;15.79;51.18
79138;BME280;68544;45.566;10.238;2023-11-21T12:07:43;63858.22;;;15.79;51.34
79138;BME280;68544;45.566;10.238;2023-11-21T12:10:20;63857.34;;;15.79;52.00
79138;BME280;68544;45.566;10.238;2023-11-21T12:12:47;63856.00;;;15.78;52.27
79138;BME280;68544;45.566;10.238;2023-11-21T12:15:12;63853.94;;;15.75;52.90
79138;BME280;68544;45.566;10.238;2023-11-21T12:17:38;63851.91;;;15.74;52.73
79138;BME280;68544;45.566;10.238;2023-11-21T12:20:04;63850.19;;;15.72;52.96
79138;BME280;68544;45.566;10.238;2023-11-21T12:22:31;63849.03;;;15.71;52.83
79138;BME280;68544;45.566;10.238;2023-11-21T12:24:56;63849.38;;;15.71;52.75
79138;BME280;68544;45.566;10.238;2023-11-21T12:27:21;63849.84;;;15.72;52.55
79138;BME280;68544;45.566;10.238;2023-11-21T12:29:47;63851.09;;;15.73;52.20
79138;BME280;68544;45.566;10.238;2023-11-21T12:32:12;63851.63;;;15.73;52.35
79138;BME280;68544;45.566;10.238;2023-11-21T12:34:41;63852.69;;;15.74;52.18
79138;BME280;68544;45.566;10.238;2023-11-21T12:37:06;63853.94;;;15.75;52.07
79138;BME280;68544;45.566;10.238;2023-11-21T12:39:31;63855.44;;;15.77;52.15
79138;BME280;68544;45.566;10.238;2023-11-21T12:41:57;63857.06;;;15.78;52.55
79138;BME280;68544;45.566;10.238;2023-11-21T12:44:22;63857.75;;;15.79;52.74
79138;BME280;68544;45.566;10.238;2023-11-21T12:46:48;63859.00;;;15.80;52.58
79138;BME280;68544;45.566;10.238;2023-11-21T12:49:14;63859.69;;;15.80;52.37
79138;BME280;68544;45.566;10.238;2023-11-21T12:51:43;63860.59;;;15.81;52.18
79138;BME280;68544;45.566;10.238;2023-11-21T12:54:08;63861.03;;;15.82;52.51